createdAt,value
2018-12-22T00:00:02.458Z,981.10
2018-12-22T00:01:02.472Z,981.09
2018-12-22T00:02:02.465Z,981.12
2018-12-22T00:03:02.424Z,981.08
2018-12-22T00:04:02.414Z,981.15
2018-12-22T00:05:02.401Z,981.08
2018-12-22T00:06:02.419Z,981.12
2018-12-22T00:07:02.383Z,981.10
2018-12-22T00:08:02.367Z,981.03
2018-12-22T00:09:02.371Z,981.14
2018-12-22T00:10:02.348Z,981.12
2018-12-22T00:11:02.357Z,981.06
2018-12-22T00:12:02.323Z,981.13
2018-12-22T00:13:02.312Z,981.25
2018-12-22T00:14:02.302Z,981.21
2018-12-22T00:15:02.302Z,981.16
2018-12-22T00:16:02.302Z,981.22
2018-12-22T00:17:02.268Z,981.24
2018-12-22T00:18:02.256Z,981.21
2018-12-22T00:19:02.244Z,981.17
2018-12-22T00:20:02.236Z,981.16
2018-12-22T00:21:02.278Z,981.16
2018-12-22T00:22:02.213Z,981.18
2018-12-22T00:23:02.201Z,981.20
2018-12-22T00:24:02.192Z,981.20
2018-12-22T00:25:02.179Z,981.26
2018-12-22T00:26:02.167Z,981.23
2018-12-22T00:27:02.188Z,981.12
2018-12-22T00:28:02.145Z,981.16
2018-12-22T00:29:02.138Z,981.25
2018-12-22T00:30:02.137Z,981.16
2018-12-22T00:31:02.112Z,981.27
2018-12-22T00:32:02.126Z,981.26
2018-12-22T00:33:02.135Z,981.28
2018-12-22T00:34:02.080Z,981.32
2018-12-22T00:35:02.068Z,981.30
2018-12-22T00:36:02.056Z,981.30
2018-12-22T00:37:02.067Z,981.29
2018-12-22T00:38:02.034Z,981.21
2018-12-22T00:39:02.057Z,981.25
2018-12-22T00:40:02.021Z,981.27
2018-12-22T00:41:02.000Z,981.26
2018-12-22T00:42:02.014Z,981.27
2018-12-22T00:43:01.979Z,981.22
2018-12-22T00:44:01.967Z,981.22
2018-12-22T00:45:01.972Z,981.18
2018-12-22T00:46:01.945Z,981.34
2018-12-22T00:47:01.957Z,981.32
2018-12-22T00:48:01.928Z,981.31
2018-12-22T00:49:01.923Z,981.25
2018-12-22T00:50:01.900Z,981.26
2018-12-22T00:51:01.907Z,981.26
2018-12-22T00:52:01.901Z,981.24
2018-12-22T00:53:01.867Z,981.29
2018-12-22T00:54:01.857Z,981.23
2018-12-22T00:55:01.871Z,981.24
2018-12-22T00:56:01.833Z,981.22
2018-12-22T00:57:01.848Z,981.27
2018-12-22T00:58:01.814Z,981.21
2018-12-22T00:59:01.803Z,981.26
2018-12-22T01:00:01.787Z,981.30
2018-12-22T01:01:01.788Z,981.30
2018-12-22T01:02:01.791Z,981.28
2018-12-22T01:03:01.756Z,981.27
2018-12-22T01:04:01.744Z,981.22
2018-12-22T01:05:01.750Z,981.25
2018-12-22T01:06:01.724Z,981.18
2018-12-22T01:07:01.736Z,981.25
2018-12-22T01:08:01.700Z,981.24
2018-12-22T01:09:01.688Z,981.25
2018-12-22T01:10:01.678Z,981.31
2018-12-22T01:11:01.675Z,981.32
2018-12-22T01:12:01.713Z,981.31
2018-12-22T01:13:01.648Z,981.29
2018-12-22T01:14:01.655Z,981.28
2018-12-22T01:15:01.623Z,981.26
2018-12-22T01:16:01.616Z,981.29
2018-12-22T01:17:01.636Z,981.27
2018-12-22T01:18:01.612Z,981.31
2018-12-22T01:19:01.584Z,981.29
2018-12-22T01:20:01.578Z,981.30
2018-12-22T01:21:01.557Z,981.26
2018-12-22T01:22:01.556Z,981.24
2018-12-22T01:23:01.604Z,981.23
2018-12-22T01:24:01.533Z,981.28
2018-12-22T01:25:01.514Z,981.27
2018-12-22T01:26:01.500Z,981.23
2018-12-22T01:27:01.492Z,981.29
2018-12-22T01:28:01.498Z,981.28
2018-12-22T01:29:01.476Z,981.31
2018-12-22T01:30:01.453Z,981.26
2018-12-22T01:31:01.445Z,981.31
2018-12-22T01:32:01.436Z,981.29
2018-12-22T01:33:01.449Z,981.32
2018-12-22T01:34:01.408Z,981.34
2018-12-22T01:35:01.410Z,981.28
2018-12-22T01:36:01.386Z,981.27
2018-12-22T01:37:01.374Z,981.33
2018-12-22T01:38:01.388Z,981.31
2018-12-22T01:39:01.353Z,981.28
2018-12-22T01:40:01.341Z,981.29
2018-12-22T01:41:01.341Z,981.27
2018-12-22T01:42:01.319Z,981.32
2018-12-22T01:43:01.331Z,981.26
2018-12-22T01:44:01.299Z,981.29
2018-12-22T01:45:01.287Z,981.30
2018-12-22T01:46:01.276Z,981.26
2018-12-22T01:47:01.282Z,981.26
2018-12-22T01:48:01.275Z,981.34
2018-12-22T01:49:01.240Z,981.29
2018-12-22T01:50:01.232Z,981.27
2018-12-22T01:51:01.221Z,981.22
2018-12-22T01:52:01.207Z,981.28
2018-12-22T01:53:01.227Z,981.28
2018-12-22T01:54:01.185Z,981.29
2018-12-22T01:55:01.171Z,981.30
2018-12-22T01:56:01.164Z,981.25
2018-12-22T01:57:01.151Z,981.28
2018-12-22T01:58:01.160Z,981.24
2018-12-22T01:59:01.137Z,981.22
2018-12-22T02:00:01.117Z,981.25
2018-12-22T02:01:01.108Z,981.11
2018-12-22T02:02:01.221Z,981.03
2018-12-22T02:03:01.107Z,981.07
2018-12-22T02:04:01.070Z,981.06
2018-12-22T02:05:01.075Z,981.08
2018-12-22T02:06:01.049Z,981.05
2018-12-22T02:07:01.036Z,981.04
2018-12-22T02:08:01.055Z,981.03
2018-12-22T02:09:01.016Z,981.07
2018-12-22T02:10:01.005Z,981.10
2018-12-22T02:11:01.001Z,981.13
2018-12-22T02:12:00.980Z,981.09
2018-12-22T02:13:00.992Z,981.11
2018-12-22T02:14:00.957Z,981.11
2018-12-22T02:15:00.949Z,981.11
2018-12-22T02:16:00.935Z,981.13
2018-12-22T02:17:00.942Z,981.14
2018-12-22T02:18:00.949Z,981.11
2018-12-22T02:19:00.901Z,981.10
2018-12-22T02:20:00.890Z,981.14
2018-12-22T02:21:00.881Z,981.11
2018-12-22T02:22:00.869Z,981.20
2018-12-22T02:23:00.864Z,981.06
2018-12-22T02:24:00.874Z,981.14
2018-12-22T02:25:00.833Z,981.10
2018-12-22T02:26:00.827Z,981.15
2018-12-22T02:27:00.819Z,981.13
2018-12-22T02:28:00.802Z,981.19
2018-12-22T02:29:00.855Z,981.10
2018-12-22T02:30:00.791Z,981.14
2018-12-22T02:31:00.769Z,981.15
2018-12-22T02:32:00.757Z,981.12
2018-12-22T02:33:00.747Z,981.16
2018-12-22T02:34:00.758Z,981.11
2018-12-22T02:35:00.743Z,981.14
2018-12-22T02:36:00.712Z,981.13
2018-12-22T02:37:00.718Z,981.14
2018-12-22T02:38:00.690Z,981.12
2018-12-22T02:39:00.702Z,981.09
2018-12-22T02:40:00.669Z,981.12
2018-12-22T02:41:00.658Z,981.13
2018-12-22T02:42:00.659Z,981.08
2018-12-22T02:43:00.637Z,981.07
2018-12-22T02:44:00.653Z,981.07
2018-12-22T02:45:00.611Z,981.02
2018-12-22T02:46:00.605Z,981.03
2018-12-22T02:47:00.606Z,981.00
2018-12-22T02:48:00.594Z,980.99
2018-12-22T02:49:00.602Z,980.99
2018-12-22T02:50:00.559Z,980.92
2018-12-22T02:51:00.546Z,980.95
2018-12-22T02:52:00.535Z,980.95
2018-12-22T02:53:00.526Z,980.93
2018-12-22T02:54:00.545Z,981.00
2018-12-22T02:55:00.505Z,980.92
2018-12-22T02:56:00.495Z,980.88
2018-12-22T02:57:00.489Z,980.87
2018-12-22T02:58:00.479Z,980.90
2018-12-22T02:59:05.870Z,980.90
2018-12-22T03:00:01.455Z,980.89
2018-12-22T03:01:00.442Z,980.83
2018-12-22T03:02:00.426Z,980.80
2018-12-22T03:03:00.415Z,980.82
2018-12-22T03:04:00.432Z,980.81
2018-12-22T03:05:00.554Z,980.85
2018-12-22T03:06:00.397Z,980.74
2018-12-22T03:07:00.370Z,980.78
2018-12-22T03:08:00.362Z,980.82
2018-12-22T03:09:00.373Z,980.78
2018-12-22T03:10:00.337Z,980.78
2018-12-22T03:11:00.329Z,980.82
2018-12-22T03:12:00.351Z,980.78
2018-12-22T03:13:00.320Z,980.74
2018-12-22T03:14:00.315Z,980.73
2018-12-22T03:15:00.284Z,980.72
2018-12-22T03:16:00.270Z,980.74
2018-12-22T03:17:00.259Z,980.78
2018-12-22T03:18:00.262Z,980.73
2018-12-22T03:19:00.261Z,980.68
2018-12-22T03:20:00.228Z,980.68
2018-12-22T03:21:00.215Z,980.62
2018-12-22T03:22:00.202Z,980.60
2018-12-22T03:23:00.196Z,980.56
2018-12-22T03:24:00.229Z,980.61
2018-12-22T03:25:00.345Z,980.61
2018-12-22T03:26:00.159Z,980.59
2018-12-22T03:27:00.150Z,980.64
2018-12-22T03:28:00.140Z,980.49
2018-12-22T03:29:00.126Z,980.57
2018-12-22T03:30:00.160Z,980.66
2018-12-22T03:31:00.125Z,980.67
2018-12-22T03:32:00.097Z,980.66
2018-12-22T03:33:00.089Z,980.60
2018-12-22T03:34:00.103Z,980.51
2018-12-22T03:35:00.093Z,980.49
2018-12-22T03:36:00.051Z,980.48
2018-12-22T03:37:00.054Z,980.48
2018-12-22T03:38:00.030Z,980.45
2018-12-22T03:39:00.014Z,980.45
2018-12-22T03:40:00.030Z,980.35
2018-12-22T03:41:00.002Z,980.40
2018-12-22T03:41:59.982Z,980.36
2018-12-22T03:43:00.039Z,980.28
2018-12-22T03:43:59.957Z,980.31
2018-12-22T03:44:59.975Z,980.34
2018-12-22T03:45:59.936Z,980.26
2018-12-22T03:46:59.931Z,980.28
2018-12-22T03:47:59.915Z,980.22
2018-12-22T03:48:59.914Z,980.21
2018-12-22T03:49:59.913Z,980.19
2018-12-22T03:50:59.885Z,980.26
2018-12-22T03:51:59.868Z,980.32
2018-12-22T03:52:59.861Z,980.30
2018-12-22T03:53:59.852Z,980.28
2018-12-22T03:54:59.878Z,980.28
2018-12-22T03:55:59.825Z,980.28
2018-12-22T03:56:59.819Z,980.22
2018-12-22T03:57:59.802Z,980.37
2018-12-22T03:58:59.792Z,980.27
2018-12-22T03:59:59.803Z,980.29
2018-12-22T04:00:59.769Z,980.30
2018-12-22T04:01:59.766Z,980.30
2018-12-22T04:02:59.746Z,980.28
2018-12-22T04:03:59.763Z,980.23
2018-12-22T04:04:59.749Z,980.25
2018-12-22T04:05:59.718Z,980.19
2018-12-22T04:06:59.706Z,980.21
2018-12-22T04:07:59.693Z,980.15
2018-12-22T04:08:59.713Z,980.17
2018-12-22T04:09:59.698Z,980.07
2018-12-22T04:10:59.662Z,979.99
2018-12-22T04:11:59.663Z,979.92
2018-12-22T04:12:59.639Z,979.96
2018-12-22T04:13:59.627Z,979.96
2018-12-22T04:14:59.681Z,980.05
2018-12-22T04:15:59.612Z,980.11
2018-12-22T04:16:59.593Z,980.06
2018-12-22T04:17:59.585Z,980.08
2018-12-22T04:18:59.586Z,980.08
2018-12-22T04:19:59.561Z,980.09
2018-12-22T04:20:59.571Z,980.08
2018-12-22T04:21:59.545Z,980.14
2018-12-22T04:22:59.531Z,980.16
2018-12-22T04:23:59.545Z,980.18
2018-12-22T04:24:59.511Z,980.17
2018-12-22T04:25:59.525Z,980.15
2018-12-22T04:26:59.485Z,980.13
2018-12-22T04:27:59.584Z,980.29
2018-12-22T04:28:59.468Z,980.05
2018-12-22T04:29:59.451Z,980.17
2018-12-22T04:30:59.464Z,980.23
2018-12-22T04:31:59.447Z,980.22
2018-12-22T04:32:59.437Z,980.28
2018-12-22T04:33:59.420Z,980.32
2018-12-22T04:34:59.401Z,980.16
2018-12-22T04:35:59.406Z,980.09
2018-12-22T04:36:59.372Z,980.18
2018-12-22T04:37:59.366Z,980.24
2018-12-22T04:38:59.349Z,980.26
2018-12-22T04:39:59.348Z,980.34
2018-12-22T04:40:59.367Z,980.36
2018-12-22T04:41:59.316Z,980.42
2018-12-22T04:42:59.309Z,980.43
2018-12-22T04:43:59.294Z,980.44
2018-12-22T04:44:59.286Z,980.67
2018-12-22T04:45:59.375Z,980.48
2018-12-22T04:46:59.284Z,980.44
2018-12-22T04:47:59.257Z,980.42
2018-12-22T04:48:59.247Z,980.44
2018-12-22T04:49:59.234Z,980.38
2018-12-22T04:50:59.255Z,980.49
2018-12-22T04:51:59.207Z,980.26
2018-12-22T04:52:59.197Z,980.42
2018-12-22T04:53:59.186Z,980.51
2018-12-22T04:54:59.177Z,980.43
2018-12-22T04:55:59.185Z,980.47
2018-12-22T04:56:59.153Z,980.42
2018-12-22T04:57:59.142Z,980.38
2018-12-22T04:58:59.131Z,980.52
2018-12-22T04:59:59.121Z,980.50
2018-12-22T05:00:59.160Z,980.31
2018-12-22T05:01:59.098Z,980.38
2018-12-22T05:02:59.087Z,980.39
2018-12-22T05:03:59.082Z,980.27
2018-12-22T05:04:59.083Z,980.39
2018-12-22T05:05:59.113Z,980.37
2018-12-22T05:06:59.044Z,980.43
2018-12-22T05:07:59.046Z,980.39
2018-12-22T05:08:59.272Z,980.48
2018-12-22T05:09:59.015Z,980.62
2018-12-22T05:10:59.031Z,980.60
2018-12-22T05:11:58.991Z,980.59
2018-12-22T05:12:58.981Z,980.57
2018-12-22T05:13:58.978Z,980.67
2018-12-22T05:14:58.953Z,980.59
2018-12-22T05:15:58.971Z,980.63
2018-12-22T05:16:58.947Z,980.68
2018-12-22T05:17:58.922Z,980.70
2018-12-22T05:18:58.921Z,980.79
2018-12-22T05:19:58.914Z,980.79
2018-12-22T05:20:58.924Z,980.78
2018-12-22T05:21:58.875Z,980.80
2018-12-22T05:22:58.874Z,980.77
2018-12-22T05:23:58.855Z,980.77
2018-12-22T05:24:58.867Z,980.80
2018-12-22T05:25:58.851Z,980.76
2018-12-22T05:26:58.845Z,980.69
2018-12-22T05:27:58.810Z,980.69
2018-12-22T05:28:58.810Z,980.85
2018-12-22T05:29:58.787Z,980.71
2018-12-22T05:30:58.781Z,980.74
2018-12-22T05:31:58.823Z,980.68
2018-12-22T05:32:58.773Z,980.68
2018-12-22T05:33:58.743Z,980.75
2018-12-22T05:34:58.733Z,980.78
2018-12-22T05:35:58.740Z,980.80
2018-12-22T05:36:58.745Z,980.74
2018-12-22T05:37:58.702Z,980.78
2018-12-22T05:38:58.700Z,980.74
2018-12-22T05:39:58.680Z,980.81
2018-12-22T05:40:58.665Z,980.83
2018-12-22T05:41:58.684Z,980.83
2018-12-22T05:42:58.654Z,980.82
2018-12-22T05:43:58.635Z,980.83
2018-12-22T05:44:58.626Z,980.79
2018-12-22T05:45:58.610Z,980.84
2018-12-22T05:46:58.630Z,980.83
2018-12-22T05:47:58.605Z,980.91
2018-12-22T05:48:58.583Z,980.90
2018-12-22T05:49:58.568Z,980.88
2018-12-22T05:50:58.576Z,980.85
2018-12-22T05:51:58.583Z,980.87
2018-12-22T05:52:58.550Z,980.97
2018-12-22T05:53:58.522Z,980.92
2018-12-22T05:54:58.512Z,980.93
2018-12-22T05:55:58.532Z,980.96
2018-12-22T05:56:58.521Z,980.97
2018-12-22T05:57:58.483Z,980.93
2018-12-22T05:58:58.470Z,980.99
2018-12-22T06:00:00.773Z,980.79
2018-12-22T06:00:58.445Z,980.95
2018-12-22T06:01:58.466Z,981.05
2018-12-22T06:02:58.438Z,981.02
2018-12-22T06:03:58.419Z,981.06
2018-12-22T06:04:58.401Z,981.12
2018-12-22T06:05:58.413Z,981.05
2018-12-22T06:06:58.401Z,981.00
2018-12-22T06:07:58.388Z,981.20
2018-12-22T06:08:58.356Z,981.09
2018-12-22T06:09:58.347Z,981.05
2018-12-22T06:10:58.346Z,981.05
2018-12-22T06:11:58.349Z,981.09
2018-12-22T06:12:58.313Z,981.00
2018-12-22T06:13:58.306Z,981.18
2018-12-22T06:14:58.298Z,981.10
2018-12-22T06:15:58.280Z,981.11
2018-12-22T06:16:58.304Z,981.13
2018-12-22T06:17:58.263Z,981.16
2018-12-22T06:18:58.246Z,981.17
2018-12-22T06:19:58.251Z,981.02
2018-12-22T06:20:58.239Z,981.14
2018-12-22T06:21:58.239Z,981.20
2018-12-22T06:22:58.204Z,981.18
2018-12-22T06:23:58.191Z,981.20
2018-12-22T06:24:58.204Z,981.21
2018-12-22T06:25:58.168Z,981.28
2018-12-22T06:26:58.213Z,981.23
2018-12-22T06:27:58.161Z,981.20
2018-12-22T06:28:58.152Z,981.25
2018-12-22T06:29:58.125Z,981.27
2018-12-22T06:30:58.120Z,981.23
2018-12-22T06:31:58.110Z,981.24
2018-12-22T06:32:58.121Z,981.28
2018-12-22T06:33:58.097Z,981.42
2018-12-22T06:34:58.072Z,981.25
2018-12-22T06:35:58.061Z,981.22
2018-12-22T06:36:58.051Z,981.27
2018-12-22T06:37:58.123Z,981.40
2018-12-22T06:38:58.048Z,981.27
2018-12-22T06:39:58.027Z,981.33
2018-12-22T06:40:58.005Z,981.38
2018-12-22T06:41:58.024Z,981.24
2018-12-22T06:42:58.009Z,981.26
2018-12-22T06:43:57.970Z,981.25
2018-12-22T06:44:57.961Z,981.18
2018-12-22T06:45:57.952Z,981.28
2018-12-22T06:46:57.952Z,981.27
2018-12-22T06:47:57.954Z,981.32
2018-12-22T06:48:57.916Z,981.42
2018-12-22T06:49:57.906Z,981.39
2018-12-22T06:50:57.894Z,981.39
2018-12-22T06:51:57.881Z,981.34
2018-12-22T06:52:57.892Z,981.43
2018-12-22T06:53:57.858Z,981.33
2018-12-22T06:54:57.852Z,981.42
2018-12-22T06:55:57.848Z,981.50
2018-12-22T06:56:57.835Z,981.48
2018-12-22T06:57:57.837Z,981.46
2018-12-22T06:58:57.803Z,981.41
2018-12-22T06:59:57.800Z,981.50
2018-12-22T07:00:57.783Z,981.65
2018-12-22T07:01:57.769Z,981.43
2018-12-22T07:02:57.782Z,981.42
2018-12-22T07:03:57.748Z,981.43
2018-12-22T07:04:57.749Z,981.50
2018-12-22T07:05:57.731Z,981.33
2018-12-22T07:06:57.716Z,981.64
2018-12-22T07:07:57.743Z,981.49
2018-12-22T07:08:57.712Z,981.63
2018-12-22T07:09:57.700Z,981.65
2018-12-22T07:10:57.689Z,981.62
2018-12-22T07:11:57.660Z,981.49
2018-12-22T07:12:57.694Z,981.86
2018-12-22T07:13:57.637Z,981.87
2018-12-22T07:14:57.648Z,982.02
2018-12-22T07:15:57.615Z,982.02
2018-12-22T07:16:57.630Z,982.27
2018-12-22T07:17:57.634Z,982.21
2018-12-22T07:18:57.585Z,982.32
2018-12-22T07:19:57.570Z,982.27
2018-12-22T07:20:57.565Z,982.32
2018-12-22T07:21:57.550Z,982.35
2018-12-22T07:22:57.573Z,982.34
2018-12-22T07:23:57.538Z,982.41
2018-12-22T07:24:57.540Z,982.44
2018-12-22T07:25:57.538Z,982.45
2018-12-22T07:26:57.504Z,982.39
2018-12-22T07:27:57.501Z,982.40
2018-12-22T07:28:57.578Z,982.42
2018-12-22T07:29:57.500Z,982.57
2018-12-22T07:30:57.484Z,982.36
2018-12-22T07:31:57.466Z,982.51
2018-12-22T07:32:57.611Z,982.47
2018-12-22T07:33:57.439Z,982.45
2018-12-22T07:34:57.427Z,982.60
2018-12-22T07:35:57.404Z,982.52
2018-12-22T07:36:57.395Z,982.57
2018-12-22T07:37:57.377Z,982.59
2018-12-22T07:38:57.461Z,982.50
2018-12-22T07:39:57.363Z,982.55
2018-12-22T07:40:57.391Z,982.64
2018-12-22T07:41:57.361Z,982.62
2018-12-22T07:42:57.334Z,982.71
2018-12-22T07:43:57.340Z,982.69
2018-12-22T07:44:57.298Z,982.72
2018-12-22T07:45:57.312Z,982.66
2018-12-22T07:46:57.323Z,982.70
2018-12-22T07:47:57.312Z,982.88
2018-12-22T07:48:57.278Z,982.61
2018-12-22T07:49:57.264Z,982.85
2018-12-22T07:50:57.243Z,982.76
2018-12-22T07:51:57.256Z,982.71
2018-12-22T07:52:57.209Z,982.79
2018-12-22T07:53:57.231Z,982.76
2018-12-22T07:54:57.212Z,982.61
2018-12-22T07:55:57.213Z,982.75
2018-12-22T07:56:57.203Z,982.71
2018-12-22T07:57:59.369Z,982.88
2018-12-22T07:58:57.208Z,982.92
2018-12-22T07:59:57.131Z,982.97
2018-12-22T08:00:57.131Z,982.75
2018-12-22T08:01:57.116Z,982.94
2018-12-22T08:02:57.144Z,982.85
2018-12-22T08:03:57.143Z,983.04
2018-12-22T08:04:57.077Z,982.95
2018-12-22T08:05:57.066Z,982.86
2018-12-22T08:06:57.064Z,982.99
2018-12-22T08:07:57.063Z,983.04
2018-12-22T08:08:57.065Z,983.12
2018-12-22T08:09:57.029Z,983.14
2018-12-22T08:10:57.031Z,983.30
2018-12-22T08:11:57.004Z,983.28
2018-12-22T08:12:56.997Z,983.15
2018-12-22T08:13:57.003Z,983.36
2018-12-22T08:14:56.972Z,983.55
2018-12-22T08:15:57.007Z,983.61
2018-12-22T08:16:56.947Z,983.49
2018-12-22T08:17:56.931Z,983.47
2018-12-22T08:18:56.964Z,983.58
2018-12-22T08:19:56.914Z,983.44
2018-12-22T08:20:56.910Z,983.82
2018-12-22T08:21:56.902Z,983.57
2018-12-22T08:22:56.905Z,983.71
2018-12-22T08:23:56.920Z,983.64
2018-12-22T08:24:56.911Z,983.59
2018-12-22T08:25:56.854Z,983.72
2018-12-22T08:26:56.850Z,983.76
2018-12-22T08:27:56.857Z,983.73
2018-12-22T08:28:56.831Z,983.66
2018-12-22T08:29:56.837Z,983.73
2018-12-22T08:30:56.789Z,983.69
2018-12-22T08:31:56.777Z,983.76
2018-12-22T08:32:56.788Z,983.76
2018-12-22T08:33:56.779Z,983.75
2018-12-22T08:34:56.774Z,983.82
2018-12-22T08:35:56.731Z,983.86
2018-12-22T08:36:56.721Z,983.94
2018-12-22T08:37:56.711Z,983.81
2018-12-22T08:38:56.704Z,984.04
2018-12-22T08:39:56.738Z,984.08
2018-12-22T08:40:56.675Z,984.06
2018-12-22T08:41:56.674Z,984.20
2018-12-22T08:42:56.660Z,984.23
2018-12-22T08:43:56.649Z,984.48
2018-12-22T08:44:56.666Z,984.21
2018-12-22T08:45:56.618Z,984.40
2018-12-22T08:46:56.638Z,984.26
2018-12-22T08:47:56.596Z,984.35
2018-12-22T08:48:56.583Z,984.41
2018-12-22T08:49:56.598Z,984.45
2018-12-22T08:50:56.565Z,984.88
2018-12-22T08:51:56.551Z,984.44
2018-12-22T08:52:56.570Z,984.46
2018-12-22T08:53:56.553Z,984.56
2018-12-22T08:54:56.541Z,984.50
2018-12-22T08:55:56.508Z,984.66
2018-12-22T08:56:56.497Z,984.71
2018-12-22T08:57:56.483Z,984.69
2018-12-22T08:58:56.471Z,984.70
2018-12-22T08:59:56.491Z,984.83
2018-12-22T09:00:56.457Z,984.77
2018-12-22T09:01:56.441Z,984.75
2018-12-22T09:02:56.426Z,984.98
2018-12-22T09:03:56.459Z,984.99
2018-12-22T09:04:56.432Z,985.08
2018-12-22T09:05:56.394Z,984.90
2018-12-22T09:06:56.388Z,985.13
2018-12-22T09:07:56.378Z,984.98
2018-12-22T09:08:56.382Z,985.06
2018-12-22T09:09:56.382Z,985.09
2018-12-22T09:10:56.354Z,985.07
2018-12-22T09:11:56.332Z,985.12
2018-12-22T09:12:56.315Z,985.04
2018-12-22T09:13:56.303Z,984.98
2018-12-22T09:14:56.329Z,985.06
2018-12-22T09:15:56.281Z,985.30
2018-12-22T09:16:56.272Z,985.22
2018-12-22T09:17:56.260Z,985.31
2018-12-22T09:18:56.250Z,985.31
2018-12-22T09:19:56.287Z,985.21
2018-12-22T09:20:56.230Z,985.33
2018-12-22T09:21:56.217Z,985.39
2018-12-22T09:22:56.205Z,985.32
2018-12-22T09:23:56.191Z,985.36
2018-12-22T09:24:56.206Z,985.38
2018-12-22T09:25:56.175Z,985.57
2018-12-22T09:26:56.159Z,985.43
2018-12-22T09:27:56.147Z,985.44
2018-12-22T09:28:56.248Z,985.44
2018-12-22T09:29:56.428Z,985.42
2018-12-22T09:31:00.787Z,985.50
2018-12-22T09:31:57.119Z,985.47
2018-12-22T09:32:56.091Z,985.43
2018-12-22T09:33:56.081Z,985.37
2018-12-22T09:34:56.068Z,985.56
2018-12-22T09:35:56.081Z,985.52
2018-12-22T09:36:56.059Z,985.52
2018-12-22T09:37:56.036Z,985.57
2018-12-22T09:38:56.030Z,985.61
2018-12-22T09:39:56.012Z,985.59
2018-12-22T09:40:56.050Z,985.62
2018-12-22T09:41:55.991Z,985.60
2018-12-22T09:42:55.990Z,985.74
2018-12-22T09:43:55.982Z,985.66
2018-12-22T09:44:55.962Z,985.74
2018-12-22T09:45:55.974Z,985.71
2018-12-22T09:46:55.936Z,985.73
2018-12-22T09:47:55.923Z,985.76
2018-12-22T09:48:55.955Z,985.73
2018-12-22T09:49:55.912Z,985.68
2018-12-22T09:50:55.936Z,985.79
2018-12-22T09:51:55.904Z,985.87
2018-12-22T09:52:55.878Z,985.90
2018-12-22T09:53:55.870Z,985.79
2018-12-22T09:54:55.858Z,985.75
2018-12-22T09:55:55.866Z,985.78
2018-12-22T09:56:55.853Z,985.87
2018-12-22T09:57:55.816Z,985.80
2018-12-22T09:58:55.804Z,985.75
2018-12-22T09:59:55.793Z,985.86
2018-12-22T10:00:55.804Z,985.82
2018-12-22T10:01:55.768Z,986.12
2018-12-22T10:02:55.763Z,985.95
2018-12-22T10:03:55.758Z,986.01
2018-12-22T10:04:55.736Z,986.00
2018-12-22T10:05:55.749Z,986.05
2018-12-22T10:06:55.712Z,986.28
2018-12-22T10:07:55.701Z,986.09
2018-12-22T10:08:55.695Z,986.03
2018-12-22T10:09:55.694Z,985.99
2018-12-22T10:10:55.693Z,985.97
2018-12-22T10:11:55.657Z,985.95
2018-12-22T10:12:55.646Z,985.97
2018-12-22T10:13:55.634Z,986.06
2018-12-22T10:14:55.643Z,985.96
2018-12-22T10:15:55.668Z,985.97
2018-12-22T10:16:55.604Z,985.97
2018-12-22T10:17:55.588Z,985.90
2018-12-22T10:18:55.578Z,986.08
2018-12-22T10:19:55.572Z,986.12
2018-12-22T10:20:55.592Z,986.06
2018-12-22T10:21:55.557Z,986.11
2018-12-22T10:22:55.548Z,986.02
2018-12-22T10:23:55.522Z,986.11
2018-12-22T10:24:55.514Z,986.10
2018-12-22T10:25:55.505Z,985.93
2018-12-22T10:26:55.514Z,986.15
2018-12-22T10:27:55.478Z,986.09
2018-12-22T10:28:55.489Z,986.09
2018-12-22T10:29:55.467Z,986.00
2018-12-22T10:30:55.444Z,986.09
2018-12-22T10:31:55.458Z,986.13
2018-12-22T10:32:55.421Z,986.14
2018-12-22T10:33:55.420Z,986.14
2018-12-22T10:34:55.406Z,986.12
2018-12-22T10:35:55.386Z,986.15
2018-12-22T10:36:55.400Z,986.19
2018-12-22T10:37:55.365Z,986.19
2018-12-22T10:38:55.353Z,986.16
2018-12-22T10:39:55.346Z,986.20
2018-12-22T10:40:55.343Z,986.17
2018-12-22T10:41:55.668Z,986.20
2018-12-22T10:42:55.308Z,986.24
2018-12-22T10:43:55.299Z,986.24
2018-12-22T10:44:55.287Z,986.17
2018-12-22T10:45:55.275Z,986.30
2018-12-22T10:46:55.300Z,986.32
2018-12-22T10:47:55.258Z,986.38
2018-12-22T10:48:55.244Z,986.34
2018-12-22T10:49:55.229Z,986.33
2018-12-22T10:50:55.230Z,986.36
2018-12-22T10:51:55.229Z,986.37
2018-12-22T10:52:55.220Z,986.42
2018-12-22T10:53:55.188Z,986.38
2018-12-22T10:54:55.175Z,986.35
2018-12-22T10:55:55.205Z,986.45
2018-12-22T10:56:55.180Z,986.40
2018-12-22T10:57:55.140Z,986.36
2018-12-22T10:58:55.141Z,986.46
2018-12-22T10:59:55.119Z,986.49
2018-12-22T11:00:55.108Z,986.53
2018-12-22T11:01:55.120Z,986.52
2018-12-22T11:02:55.084Z,986.51
2018-12-22T11:03:55.074Z,986.44
2018-12-22T11:04:55.083Z,986.69
2018-12-22T11:05:55.049Z,986.48
2018-12-22T11:06:55.062Z,986.48
2018-12-22T11:07:55.031Z,986.50
2018-12-22T11:08:55.015Z,986.50
2018-12-22T11:09:55.012Z,986.58
2018-12-22T11:10:54.997Z,986.56
2018-12-22T11:11:55.028Z,986.53
2018-12-22T11:12:54.976Z,986.58
2018-12-22T11:13:54.994Z,986.65
2018-12-22T11:14:54.965Z,986.56
2018-12-22T11:15:54.941Z,986.54
2018-12-22T11:16:54.980Z,986.62
2018-12-22T11:17:54.924Z,986.59
2018-12-22T11:18:54.931Z,986.63
2018-12-22T11:19:54.891Z,986.57
2018-12-22T11:20:54.888Z,986.49
2018-12-22T11:21:54.895Z,986.50
2018-12-22T11:22:54.857Z,986.64
2018-12-22T11:23:54.852Z,986.63
2018-12-22T11:24:54.848Z,986.59
2018-12-22T11:25:54.828Z,986.57
2018-12-22T11:26:54.837Z,986.55
2018-12-22T11:27:54.803Z,986.55
2018-12-22T11:28:54.791Z,986.56
2018-12-22T11:29:54.795Z,986.58
2018-12-22T11:30:54.769Z,986.56
2018-12-22T11:31:54.782Z,986.55
2018-12-22T11:32:54.747Z,986.52
2018-12-22T11:33:54.739Z,986.57
2018-12-22T11:34:54.726Z,986.56
2018-12-22T11:35:54.721Z,986.54
2018-12-22T11:36:54.740Z,986.56
2018-12-22T11:37:54.694Z,986.57
2018-12-22T11:38:54.699Z,986.54
2018-12-22T11:39:54.674Z,986.55
2018-12-22T11:40:54.658Z,986.57
2018-12-22T11:41:54.676Z,986.59
2018-12-22T11:42:54.637Z,986.52
2018-12-22T11:43:54.673Z,986.50
2018-12-22T11:44:54.616Z,986.59
2018-12-22T11:45:54.601Z,986.61
2018-12-22T11:46:54.645Z,986.55
2018-12-22T11:47:54.602Z,986.52
2018-12-22T11:48:54.592Z,986.63
2018-12-22T11:49:54.560Z,986.66
2018-12-22T11:50:54.551Z,986.63
2018-12-22T11:51:54.569Z,986.66
2018-12-22T11:52:54.529Z,986.70
2018-12-22T11:53:54.522Z,986.69
2018-12-22T11:54:54.531Z,986.75
2018-12-22T11:55:54.517Z,986.66
2018-12-22T11:56:54.536Z,986.72
2018-12-22T11:57:54.472Z,986.75
2018-12-22T11:58:54.457Z,986.72
2018-12-22T11:59:54.449Z,986.85
2018-12-22T12:00:54.438Z,986.82
2018-12-22T12:01:54.466Z,986.82
2018-12-22T12:02:54.428Z,986.80
2018-12-22T12:03:54.400Z,986.79
2018-12-22T12:04:54.402Z,986.78
2018-12-22T12:05:54.389Z,986.77
2018-12-22T12:06:54.392Z,986.74
2018-12-22T12:07:54.357Z,986.80
2018-12-22T12:08:54.350Z,986.81
2018-12-22T12:09:54.333Z,986.85
2018-12-22T12:10:54.325Z,986.82
2018-12-22T12:11:54.336Z,986.83
2018-12-22T12:12:54.304Z,986.88
2018-12-22T12:13:54.288Z,986.89
2018-12-22T12:14:54.293Z,986.93
2018-12-22T12:15:54.266Z,986.91
2018-12-22T12:16:55.050Z,986.97
2018-12-22T12:17:54.244Z,986.96
2018-12-22T12:18:54.232Z,986.91
2018-12-22T12:19:54.221Z,986.91
2018-12-22T12:20:54.218Z,987.00
2018-12-22T12:21:54.198Z,987.03
2018-12-22T12:22:54.212Z,987.08
2018-12-22T12:23:54.180Z,987.14
2018-12-22T12:24:54.166Z,987.10
2018-12-22T12:25:54.154Z,987.16
2018-12-22T12:26:54.149Z,987.12
2018-12-22T12:27:54.165Z,987.14